createdAt,value
2019-06-26T00:03:09.376Z,28.87
2019-06-26T00:08:18.549Z,28.82
2019-06-26T00:13:26.508Z,28.77
2019-06-26T00:18:31.039Z,28.72
2019-06-26T00:23:36.583Z,28.66
2019-06-26T00:28:42.047Z,28.61
2019-06-26T00:33:47.594Z,28.56
2019-06-26T00:38:52.821Z,28.49
2019-06-26T00:43:57.971Z,28.43
2019-06-26T00:49:03.153Z,28.39
2019-06-26T00:54:08.393Z,28.34
2019-06-26T00:59:13.896Z,28.29
2019-06-26T01:04:21.954Z,28.24
2019-06-26T01:09:27.391Z,28.18
2019-06-26T01:14:32.955Z,28.09
2019-06-26T01:19:38.137Z,28.02
2019-06-26T01:24:43.407Z,27.94
2019-06-26T01:29:49.459Z,27.88
2019-06-26T01:34:55.690Z,27.82
2019-06-26T01:40:01.296Z,27.78
2019-06-26T01:45:24.297Z,27.73
2019-06-26T01:50:47.382Z,27.66
2019-06-26T01:56:10.225Z,27.60
2019-06-26T02:01:39.516Z,27.55
2019-06-26T02:07:02.912Z,27.48
2019-06-26T02:12:26.674Z,27.39
2019-06-26T02:17:50.144Z,27.34
2019-06-26T02:23:15.858Z,27.26
2019-06-26T02:28:39.252Z,27.20
2019-06-26T02:34:02.317Z,27.08
2019-06-26T02:39:11.562Z,27.06
2019-06-26T02:44:17.029Z,27.01
2019-06-26T02:49:22.177Z,27.00
2019-06-26T02:54:27.333Z,26.95
2019-06-26T02:59:32.574Z,26.95
2019-06-26T03:04:37.804Z,26.92
2019-06-26T03:09:42.984Z,26.88
2019-06-26T03:14:48.163Z,26.80
2019-06-26T03:19:53.368Z,26.80
2019-06-26T03:25:16.909Z,26.77
2019-06-26T03:30:40.298Z,26.65
2019-06-26T03:36:05.805Z,26.65
2019-06-26T03:41:28.932Z,26.57
2019-06-26T03:46:52.569Z,26.57
2019-06-26T03:52:15.601Z,26.54
2019-06-26T03:57:38.598Z,26.51
2019-06-26T04:03:01.417Z,26.40
2019-06-26T04:08:36.230Z,26.37
2019-06-26T04:13:59.323Z,26.36
2019-06-26T04:19:22.740Z,26.36
2019-06-26T04:24:46.199Z,26.36
2019-06-26T04:29:51.543Z,26.47
2019-06-26T04:34:56.689Z,26.47
2019-06-26T04:40:02.410Z,26.50
2019-06-26T04:45:08.512Z,26.51
2019-06-26T04:50:13.895Z,26.49
2019-06-26T04:55:20.521Z,26.51
2019-06-26T05:00:26.113Z,26.55
2019-06-26T05:05:39.527Z,26.61
2019-06-26T05:10:38.551Z,26.68
2019-06-26T05:15:43.761Z,26.75
2019-06-26T05:20:48.904Z,26.82
2019-06-26T05:25:54.446Z,26.87
2019-06-26T05:30:59.592Z,26.91
2019-06-26T05:36:23.308Z,26.96
2019-06-26T05:41:46.159Z,27.00
2019-06-26T05:47:09.817Z,27.06
2019-06-26T05:52:33.039Z,27.11
2019-06-26T05:57:56.775Z,27.23
2019-06-26T06:03:20.315Z,27.30
2019-06-26T06:08:43.378Z,27.36
2019-06-26T06:14:07.708Z,27.43
2019-06-26T06:19:31.195Z,27.52
2019-06-26T06:24:54.354Z,27.60
2019-06-26T06:30:17.619Z,27.72
2019-06-26T06:35:41.059Z,27.81
2019-06-26T06:41:04.668Z,27.91
2019-06-26T06:46:10.057Z,28.02
2019-06-26T06:51:15.204Z,28.17
2019-06-26T06:56:20.426Z,28.32
2019-06-26T07:01:25.666Z,28.45
2019-06-26T07:06:31.085Z,28.60
2019-06-26T07:11:36.290Z,28.73
2019-06-26T07:16:41.708Z,28.89
2019-06-26T07:21:46.919Z,29.03
2019-06-26T07:26:52.349Z,29.18
2019-06-26T07:31:57.926Z,29.32
2019-06-26T07:37:03.201Z,29.47
2019-06-26T07:42:08.417Z,29.62
2019-06-26T07:47:23.197Z,29.76
2019-06-26T07:52:21.918Z,29.91
2019-06-26T07:57:27.385Z,30.08
2019-06-26T08:02:32.941Z,30.24
2019-06-26T08:07:38.847Z,30.41
2019-06-26T08:12:44.281Z,30.58
2019-06-26T08:17:59.845Z,30.75
2019-06-26T08:22:56.589Z,30.91
2019-06-26T08:28:02.105Z,31.07
2019-06-26T08:33:07.569Z,31.24
2019-06-26T08:38:15.577Z,31.41
2019-06-26T08:43:19.810Z,31.59
2019-06-26T08:48:39.054Z,31.76
2019-06-26T08:53:32.417Z,31.89
2019-06-26T08:58:37.987Z,32.03
2019-06-26T09:03:43.434Z,32.21
2019-06-26T09:08:48.574Z,32.37
2019-06-26T09:13:54.057Z,32.55
2019-06-26T09:18:59.197Z,32.70
2019-06-26T09:24:04.695Z,32.88
2019-06-26T09:29:10.154Z,33.06
2019-06-26T09:34:15.361Z,33.21
2019-06-26T09:39:20.586Z,33.40
2019-06-26T09:44:26.140Z,33.55
2019-06-26T09:49:31.598Z,33.64
2019-06-26T09:54:36.808Z,33.81
2019-06-26T09:59:42.030Z,33.95
2019-06-26T10:04:47.182Z,34.09
2019-06-26T10:09:52.638Z,34.22
2019-06-26T10:14:58.103Z,34.35
2019-06-26T10:20:04.427Z,34.50
2019-06-26T10:25:11.376Z,34.69
2019-06-26T10:30:17.465Z,34.91
2019-06-26T10:35:22.874Z,35.09
2019-06-26T10:40:28.391Z,35.25
2019-06-26T10:45:36.157Z,35.38
2019-06-26T10:50:49.363Z,35.50
2019-06-26T10:55:47.961Z,35.58
2019-06-26T11:00:53.179Z,35.74
2019-06-26T11:05:58.585Z,35.85
2019-06-26T11:11:03.787Z,35.97
2019-06-26T11:16:08.926Z,36.10
2019-06-26T11:21:14.365Z,36.28
2019-06-26T11:26:19.515Z,36.43
2019-06-26T11:31:24.726Z,36.62
2019-06-26T11:36:30.099Z,36.85
2019-06-26T11:41:35.257Z,37.07
2019-06-26T11:46:40.391Z,37.30
2019-06-26T11:51:45.830Z,37.49
2019-06-26T11:56:51.059Z,37.58
2019-06-26T12:01:56.614Z,37.71
2019-06-26T12:07:02.026Z,37.80
2019-06-26T12:12:07.179Z,37.87
2019-06-26T12:17:12.641Z,37.94
2019-06-26T12:22:18.105Z,38.07
2019-06-26T12:27:23.497Z,38.09
2019-06-26T12:32:30.090Z,38.17
2019-06-26T12:37:38.086Z,38.30
2019-06-26T12:42:42.260Z,38.41
2019-06-26T12:47:47.646Z,38.52
2019-06-26T12:52:53.166Z,38.56
2019-06-26T12:58:12.656Z,38.62
2019-06-26T13:03:05.681Z,38.68
2019-06-26T13:08:10.820Z,38.76
2019-06-26T13:13:15.965Z,38.92
2019-06-26T13:18:21.446Z,39.03
2019-06-26T13:23:26.887Z,38.97
2019-06-26T13:28:32.144Z,38.90
2019-06-26T13:33:37.550Z,38.96
2019-06-26T13:38:42.760Z,39.00
2019-06-26T13:43:47.915Z,39.07
2019-06-26T13:48:53.130Z,39.11
2019-06-26T13:53:58.274Z,39.15
2019-06-26T13:59:05.254Z,39.13
2019-06-26T14:04:10.592Z,39.20
2019-06-26T14:09:16.008Z,39.34
2019-06-26T14:14:23.194Z,39.43
2019-06-26T14:19:28.422Z,39.41
2019-06-26T14:24:33.992Z,39.39
2019-06-26T14:29:39.140Z,39.45
2019-06-26T14:34:44.705Z,39.53
2019-06-26T14:39:50.165Z,39.69
2019-06-26T14:44:55.362Z,39.87
2019-06-26T14:50:00.626Z,40.03
2019-06-26T14:55:07.224Z,40.14
2019-06-26T15:00:13.286Z,40.20
2019-06-26T15:05:19.034Z,40.24
2019-06-26T15:10:24.161Z,40.27
2019-06-26T15:15:29.348Z,40.20
2019-06-26T15:20:34.559Z,40.25
2019-06-26T15:25:40.073Z,40.31
2019-06-26T15:30:45.556Z,40.47
2019-06-26T15:35:51.808Z,40.63
2019-06-26T15:40:57.280Z,40.70
2019-06-26T15:46:02.853Z,40.83
2019-06-26T15:51:08.337Z,40.86
2019-06-26T15:56:13.604Z,40.98
2019-06-26T16:01:19.083Z,41.05
2019-06-26T16:06:24.611Z,41.10
2019-06-26T16:11:30.237Z,41.20
2019-06-26T16:16:37.281Z,41.21
2019-06-26T16:21:42.661Z,41.27
2019-06-26T16:26:48.491Z,41.21
2019-06-26T16:31:53.984Z,41.20
2019-06-26T16:37:00.622Z,41.22
2019-06-26T16:42:05.762Z,41.29
2019-06-26T16:47:10.917Z,41.35
2019-06-26T16:52:16.674Z,41.43
2019-06-26T16:57:21.890Z,41.52
2019-06-26T17:02:27.105Z,41.53
2019-06-26T17:07:32.360Z,41.62
2019-06-26T17:12:37.970Z,41.72
2019-06-26T17:17:43.476Z,41.83
2019-06-26T17:23:04.045Z,41.90
2019-06-26T17:27:56.656Z,41.95
2019-06-26T17:33:01.905Z,41.92
2019-06-26T17:38:07.055Z,41.95
2019-06-26T17:43:13.087Z,41.93
2019-06-26T17:48:18.680Z,41.89
2019-06-26T17:53:23.756Z,41.85
2019-06-26T17:58:29.203Z,41.86
2019-06-26T18:03:34.708Z,41.83
2019-06-26T18:08:39.924Z,41.79
2019-06-26T18:13:45.164Z,41.76
2019-06-26T18:18:50.586Z,41.75
2019-06-26T18:23:57.082Z,41.68
2019-06-26T18:29:02.225Z,41.58
2019-06-26T18:34:07.471Z,41.44
2019-06-26T18:39:12.654Z,41.23
2019-06-26T18:44:17.834Z,40.97
2019-06-26T18:49:23.282Z,40.74
2019-06-26T18:54:28.514Z,40.44
2019-06-26T18:59:33.692Z,40.16
2019-06-26T19:04:39.129Z,39.89
2019-06-26T19:09:44.347Z,39.62
2019-06-26T19:14:49.844Z,39.29
2019-06-26T19:19:54.982Z,39.01
2019-06-26T19:25:00.391Z,38.72
2019-06-26T19:30:09.490Z,38.46
2019-06-26T19:35:19.202Z,38.25
2019-06-26T19:40:24.119Z,38.06
2019-06-26T19:45:28.960Z,37.88
2019-06-26T19:50:34.171Z,37.72
2019-06-26T19:55:39.391Z,37.55
2019-06-26T20:00:44.716Z,37.39
2019-06-26T20:05:49.926Z,37.21
2019-06-26T20:10:55.394Z,37.05
2019-06-26T20:16:00.594Z,36.88
2019-06-26T20:21:05.811Z,36.69
2019-06-26T20:26:10.959Z,36.50
2019-06-26T20:31:16.114Z,36.26
2019-06-26T20:36:21.646Z,36.03
2019-06-26T20:41:26.803Z,35.84
2019-06-26T20:46:32.246Z,35.66
2019-06-26T20:51:37.714Z,35.51
2019-06-26T20:56:42.878Z,35.38
2019-06-26T21:01:48.333Z,35.27
2019-06-26T21:06:54.009Z,35.18
2019-06-26T21:11:59.781Z,35.09
2019-06-26T21:17:05.389Z,34.98
2019-06-26T21:22:10.934Z,34.89
2019-06-26T21:27:17.299Z,34.82
2019-06-26T21:32:22.543Z,34.71
2019-06-26T21:37:28.049Z,34.62
2019-06-26T21:42:33.616Z,34.51
2019-06-26T21:47:39.181Z,34.42
2019-06-26T21:52:44.334Z,34.27
2019-06-26T21:57:51.387Z,34.12
2019-06-26T22:03:14.783Z,34.01
2019-06-26T22:08:21.802Z,33.90
2019-06-26T22:13:28.897Z,33.85
2019-06-26T22:18:34.107Z,33.79
2019-06-26T22:23:39.254Z,33.73
2019-06-26T22:28:44.395Z,33.67
2019-06-26T22:33:49.531Z,33.58
2019-06-26T22:38:54.678Z,33.49
2019-06-26T22:44:00.150Z,33.35
2019-06-26T22:49:06.662Z,33.24
2019-06-26T22:54:12.151Z,33.13
2019-06-26T22:59:17.574Z,33.03
2019-06-26T23:04:23.159Z,32.98
2019-06-26T23:09:28.634Z,32.91
2019-06-26T23:14:33.771Z,32.84
2019-06-26T23:19:39.024Z,32.77
2019-06-26T23:24:44.488Z,32.71
2019-06-26T23:29:49.652Z,32.63
2019-06-26T23:34:54.852Z,32.57
2019-06-26T23:40:00.504Z,32.45
2019-06-26T23:45:07.796Z,32.36
2019-06-26T23:50:13.222Z,32.27
2019-06-26T23:55:19.640Z,32.16
